createdAt,value
2019-04-10T00:00:09.319Z,101066.84
2019-04-10T00:02:37.798Z,101058.66
2019-04-10T00:05:07.621Z,101061.80
2019-04-10T00:07:36.059Z,101067.13
2019-04-10T00:10:05.661Z,101063.08
2019-04-10T00:12:34.339Z,101062.73
2019-04-10T00:15:03.156Z,101062.53
2019-04-10T00:17:31.647Z,101063.72
2019-04-10T00:20:00.129Z,101063.73
2019-04-10T00:22:28.587Z,101066.48
2019-04-10T00:24:57.019Z,101068.66
2019-04-10T00:27:26.263Z,101060.75
2019-04-10T00:29:54.780Z,101063.73
2019-04-10T00:32:23.746Z,101060.48
2019-04-10T00:34:52.542Z,101059.58
2019-04-10T00:37:26.830Z,101055.14
2019-04-10T00:39:51.183Z,101056.38
2019-04-10T00:42:19.698Z,101057.67
2019-04-10T00:44:48.159Z,101064.61
2019-04-10T00:47:17.038Z,101065.01
2019-04-10T00:49:46.142Z,101061.77
2019-04-10T00:52:14.804Z,101060.21
2019-04-10T00:54:43.460Z,101060.49
2019-04-10T00:57:12.829Z,101058.25
2019-04-10T00:59:42.165Z,101062.22
2019-04-10T01:02:10.762Z,101060.56
2019-04-10T01:04:39.345Z,101056.93
2019-04-10T01:07:08.637Z,101064.33
2019-04-10T01:09:37.523Z,101063.06
2019-04-10T01:12:06.227Z,101064.54
2019-04-10T01:14:34.664Z,101059.00
2019-04-10T01:17:04.070Z,101062.48
2019-04-10T01:19:32.669Z,101063.19
2019-04-10T01:22:01.203Z,101062.36
2019-04-10T01:24:29.997Z,101063.64
2019-04-10T01:26:59.288Z,101059.31
2019-04-10T01:29:28.036Z,101058.63
2019-04-10T01:31:56.575Z,101058.86
2019-04-10T01:34:25.389Z,101052.98
2019-04-10T01:36:54.582Z,101056.79
2019-04-10T01:39:24.889Z,101056.49
2019-04-10T01:41:54.380Z,101051.85
2019-04-10T01:44:23.135Z,101054.95
2019-04-10T01:46:52.838Z,101057.27
2019-04-10T01:49:21.754Z,101063.28
2019-04-10T01:51:50.403Z,101053.54
2019-04-10T01:54:19.365Z,101050.70
2019-04-10T01:56:48.037Z,101051.13
2019-04-10T01:59:18.131Z,101056.14
2019-04-10T02:01:48.699Z,101057.00
2019-04-10T02:04:17.151Z,101060.84
2019-04-10T02:06:45.662Z,101058.70
2019-04-10T02:09:15.017Z,101056.57
2019-04-10T02:11:43.553Z,101058.18
2019-04-10T02:14:12.165Z,101053.66
2019-04-10T02:16:41.121Z,101048.41
2019-04-10T02:19:10.118Z,101049.41
2019-04-10T02:21:38.721Z,101050.90
2019-04-10T02:24:07.193Z,101051.48
2019-04-10T02:26:36.017Z,101053.53
2019-04-10T02:29:04.533Z,101053.63
2019-04-10T02:31:34.511Z,101054.01
2019-04-10T02:34:04.831Z,101054.79
2019-04-10T02:36:34.427Z,101052.30
2019-04-10T02:39:15.275Z,101054.53
2019-04-10T02:41:36.441Z,101049.12
2019-04-10T02:44:05.228Z,101051.64
2019-04-10T02:46:33.699Z,101054.74
2019-04-10T02:49:03.802Z,101056.31
2019-04-10T02:51:32.592Z,101061.17
2019-04-10T02:54:02.528Z,101058.63
2019-04-10T02:56:32.645Z,101066.50
2019-04-10T02:59:02.749Z,101063.92
2019-04-10T03:01:31.656Z,101062.12
2019-04-10T03:04:01.444Z,101058.72
2019-04-10T03:06:31.170Z,101063.44
2019-04-10T03:09:14.672Z,101061.30
2019-04-10T03:11:31.262Z,101062.12
2019-04-10T03:14:01.390Z,101056.45
2019-04-10T03:16:31.159Z,101056.12
2019-04-10T03:18:59.755Z,101068.33
2019-04-10T03:21:29.244Z,101071.72
2019-04-10T03:23:58.031Z,101070.59
2019-04-10T03:26:27.814Z,101069.64
2019-04-10T03:28:57.644Z,101064.05
2019-04-10T03:31:27.752Z,101072.69
2019-04-10T03:34:03.309Z,101072.91
2019-04-10T03:36:36.310Z,101068.76
2019-04-10T03:39:08.982Z,101063.39
2019-04-10T03:41:37.997Z,101064.57
2019-04-10T03:44:06.654Z,101068.80
2019-04-10T03:46:45.057Z,101064.09
2019-04-10T03:49:16.055Z,101061.82
2019-04-10T03:51:45.012Z,101065.13
2019-04-10T03:54:13.553Z,101065.22
2019-04-10T03:56:42.544Z,101055.09
2019-04-10T03:59:11.775Z,101055.22
2019-04-10T04:01:40.948Z,101058.35
2019-04-10T04:04:09.681Z,101060.36
2019-04-10T04:06:38.159Z,101065.27
2019-04-10T04:09:10.950Z,101065.10
2019-04-10T04:11:37.851Z,101068.24
2019-04-10T04:14:06.791Z,101073.22
2019-04-10T04:16:35.330Z,101070.03
2019-04-10T04:19:05.843Z,101070.86
2019-04-10T04:21:35.949Z,101071.81
2019-04-10T04:24:04.838Z,101068.88
2019-04-10T04:26:33.369Z,101076.36
2019-04-10T04:29:02.062Z,101081.99
2019-04-10T04:31:31.203Z,101079.49
2019-04-10T04:33:59.871Z,101078.29
2019-04-10T04:36:28.702Z,101076.05
2019-04-10T04:38:57.736Z,101080.17
2019-04-10T04:41:27.369Z,101079.98
2019-04-10T04:43:55.865Z,101080.36
2019-04-10T04:46:24.368Z,101078.92
2019-04-10T04:48:52.853Z,101084.35
2019-04-10T04:51:21.965Z,101085.73
2019-04-10T04:53:50.617Z,101090.30
2019-04-10T04:56:19.948Z,101086.54
2019-04-10T04:58:49.619Z,101093.62
2019-04-10T05:01:19.000Z,101094.26
2019-04-10T05:03:48.416Z,101100.23
2019-04-10T05:06:18.122Z,101100.05
2019-04-10T05:08:46.868Z,101107.19
2019-04-10T05:11:15.353Z,101110.64
2019-04-10T05:13:43.790Z,101112.86
2019-04-10T05:16:12.376Z,101122.86
2019-04-10T05:18:40.826Z,101115.45
2019-04-10T05:21:09.309Z,101120.88
2019-04-10T05:23:38.494Z,101120.45
2019-04-10T05:26:08.146Z,101118.50
2019-04-10T05:28:36.749Z,101121.38
2019-04-10T05:31:05.210Z,101119.37
2019-04-10T05:33:33.684Z,101124.33
2019-04-10T05:36:02.241Z,101130.05
2019-04-10T05:38:30.705Z,101127.30
2019-04-10T05:41:01.334Z,101132.45
2019-04-10T05:43:30.704Z,101132.88
2019-04-10T05:45:59.348Z,101134.00
2019-04-10T05:48:27.958Z,101138.96
2019-04-10T05:51:02.998Z,101136.61
2019-04-10T05:53:26.810Z,101149.25
2019-04-10T05:55:55.879Z,101138.92
2019-04-10T05:58:24.585Z,101149.53
2019-04-10T06:00:53.438Z,101144.92
2019-04-10T06:03:22.725Z,101143.27
2019-04-10T06:05:51.299Z,101149.81
2019-04-10T06:08:19.788Z,101148.86
2019-04-10T06:10:48.254Z,101149.23
2019-04-10T06:13:17.163Z,101155.21
2019-04-10T06:15:45.861Z,101146.59
2019-04-10T06:18:15.305Z,101148.52
2019-04-10T06:20:45.167Z,101145.34
2019-04-10T06:23:14.785Z,101155.70
2019-04-10T06:25:43.735Z,101149.95
2019-04-10T06:28:12.948Z,101147.88
2019-04-10T06:30:41.910Z,101153.50
2019-04-10T06:33:11.625Z,101151.60
2019-04-10T06:35:40.185Z,101143.95
2019-04-10T06:38:08.768Z,101148.65
2019-04-10T06:40:37.682Z,101140.73
2019-04-10T06:43:06.620Z,101144.12
2019-04-10T06:45:35.769Z,101150.89
2019-04-10T06:48:04.352Z,101156.90
2019-04-10T06:50:32.926Z,101152.80
2019-04-10T06:53:01.603Z,101156.77
2019-04-10T06:55:30.289Z,101149.98
2019-04-10T06:57:59.392Z,101151.06
2019-04-10T07:00:28.614Z,101154.38
2019-04-10T07:02:57.315Z,101147.36
2019-04-10T07:05:36.980Z,101158.66
2019-04-10T07:08:05.757Z,101157.56
2019-04-10T07:10:33.609Z,101161.46
2019-04-10T07:12:56.559Z,101162.08
2019-04-10T07:15:25.655Z,101163.37
2019-04-10T07:17:55.371Z,101163.29
2019-04-10T07:20:24.170Z,101166.49
2019-04-10T07:22:53.348Z,101170.62
2019-04-10T07:25:22.017Z,101171.29
2019-04-10T07:27:54.330Z,101175.08
2019-04-10T07:30:26.254Z,101172.87
2019-04-10T07:32:56.161Z,101178.63
2019-04-10T07:35:25.663Z,101185.84
2019-04-10T07:37:56.937Z,101187.22
2019-04-10T07:40:24.936Z,101185.67
2019-04-10T07:42:54.577Z,101193.36
2019-04-10T07:45:26.433Z,101194.52
2019-04-10T07:47:53.923Z,101194.92
2019-04-10T07:50:22.650Z,101194.20
2019-04-10T07:52:52.078Z,101203.66
2019-04-10T07:55:21.106Z,101205.88
2019-04-10T07:57:51.766Z,101202.92
2019-04-10T08:00:20.777Z,101205.27
2019-04-10T08:02:49.280Z,101208.63
2019-04-10T08:05:18.771Z,101211.83
2019-04-10T08:07:47.400Z,101210.30
2019-04-10T08:10:15.939Z,101206.36
2019-04-10T08:12:50.042Z,101214.27
2019-04-10T08:15:14.648Z,101216.73
2019-04-10T08:17:44.453Z,101226.63
2019-04-10T08:20:13.369Z,101218.06
2019-04-10T08:22:42.728Z,101220.75
2019-04-10T08:25:11.370Z,101222.36
2019-04-10T08:27:39.823Z,101223.33
2019-04-10T08:30:10.948Z,101218.17
2019-04-10T08:32:50.934Z,101231.83
2019-04-10T08:35:11.108Z,101228.39
2019-04-10T08:37:40.977Z,101232.75
2019-04-10T08:40:11.521Z,101227.29
2019-04-10T08:42:40.696Z,101227.03
2019-04-10T08:45:11.396Z,101227.30
2019-04-10T08:47:40.117Z,101224.99
2019-04-10T08:50:09.652Z,101228.92
2019-04-10T08:52:39.059Z,101228.97
2019-04-10T08:55:08.031Z,101227.45
2019-04-10T08:57:36.490Z,101234.36
2019-04-10T09:00:08.731Z,101227.20
2019-04-10T09:02:38.113Z,101225.56
2019-04-10T09:05:09.193Z,101233.21
2019-04-10T09:07:38.224Z,101229.92
2019-04-10T09:10:07.358Z,101232.43
2019-04-10T09:12:35.897Z,101230.87
2019-04-10T09:15:05.642Z,101229.75
2019-04-10T09:17:34.191Z,101224.56
2019-04-10T09:20:06.659Z,101227.54
2019-04-10T09:22:55.171Z,101222.94
2019-04-10T09:25:06.966Z,101221.28
2019-04-10T09:27:35.962Z,101220.73
2019-04-10T09:30:06.800Z,101221.28
2019-04-10T09:32:35.271Z,101212.80
2019-04-10T09:35:04.836Z,101206.97
2019-04-10T09:37:34.394Z,101213.86
2019-04-10T09:40:05.614Z,101214.95
2019-04-10T09:42:35.214Z,101218.83
2019-04-10T09:45:04.798Z,101217.44
2019-04-10T09:47:34.672Z,101214.44
2019-04-10T09:50:03.745Z,101214.72
2019-04-10T09:52:32.184Z,101215.75
2019-04-10T09:55:00.739Z,101216.18
2019-04-10T09:57:29.264Z,101217.45
2019-04-10T09:59:57.833Z,101216.83
2019-04-10T10:02:27.467Z,101209.24
2019-04-10T10:04:56.092Z,101209.73
2019-04-10T10:07:24.543Z,101207.92
2019-04-10T10:09:53.058Z,101208.52
2019-04-10T10:12:21.517Z,101214.38
2019-04-10T10:14:49.992Z,101208.22
2019-04-10T10:17:18.439Z,101206.80
2019-04-10T10:19:48.081Z,101212.94
2019-04-10T10:22:16.895Z,101210.06
2019-04-10T10:24:46.716Z,101205.48
2019-04-10T10:27:15.682Z,101211.91
2019-04-10T10:29:44.260Z,101219.56
2019-04-10T10:32:12.933Z,101213.00
2019-04-10T10:34:41.457Z,101210.49
2019-04-10T10:37:12.516Z,101208.42
2019-04-10T10:39:41.441Z,101210.02
2019-04-10T10:42:09.899Z,101214.81
2019-04-10T10:44:40.896Z,101204.86
2019-04-10T10:47:09.563Z,101211.59
2019-04-10T10:49:38.076Z,101206.08
2019-04-10T10:52:09.055Z,101203.39
2019-04-10T10:54:38.165Z,101208.16
2019-04-10T10:57:07.038Z,101212.67
2019-04-10T10:59:35.747Z,101207.85
2019-04-10T11:02:04.833Z,101201.77
2019-04-10T11:04:33.643Z,101205.30
2019-04-10T11:07:02.660Z,101203.91
2019-04-10T11:09:32.406Z,101200.92
2019-04-10T11:12:01.719Z,101211.16
2019-04-10T11:14:31.584Z,101205.98
2019-04-10T11:17:01.384Z,101204.27
2019-04-10T11:19:31.166Z,101204.91
2019-04-10T11:22:00.984Z,101197.81
2019-04-10T11:24:29.732Z,101197.80
2019-04-10T11:26:58.188Z,101194.34
2019-04-10T11:29:28.756Z,101199.76
2019-04-10T11:31:58.005Z,101209.23
2019-04-10T11:34:26.630Z,101205.25
2019-04-10T11:37:16.880Z,101197.78
2019-04-10T11:39:28.589Z,101193.05
2019-04-10T11:41:57.724Z,101199.50
2019-04-10T11:44:27.493Z,101196.09
2019-04-10T11:46:57.245Z,101197.84
2019-04-10T11:49:27.801Z,101195.67
2019-04-10T11:51:59.971Z,101202.08
2019-04-10T11:54:29.655Z,101200.97
2019-04-10T11:56:58.726Z,101205.59
2019-04-10T11:59:28.818Z,101193.18
2019-04-10T12:04:30.824Z,101197.73
2019-04-10T12:07:01.494Z,101197.94
2019-04-10T12:10:49.459Z,101201.88
2019-04-10T12:11:59.417Z,101193.00
2019-04-10T12:14:28.011Z,101207.64
2019-04-10T12:16:56.453Z,101198.61
2019-04-10T12:19:25.250Z,101220.73
2019-04-10T12:21:53.860Z,101225.09
2019-04-10T12:24:22.389Z,101224.59
2019-04-10T12:26:51.731Z,101224.95
2019-04-10T12:29:20.453Z,101230.86
2019-04-10T12:31:48.901Z,101227.13
2019-04-10T12:34:18.233Z,101223.55
2019-04-10T12:36:47.275Z,101228.52
2019-04-10T12:39:16.228Z,101227.23
2019-04-10T12:41:45.832Z,101226.58
2019-04-10T12:44:14.464Z,101231.13
2019-04-10T12:46:43.556Z,101234.91
2019-04-10T12:49:12.218Z,101225.04
2019-04-10T12:51:41.537Z,101206.95
2019-04-10T12:54:10.149Z,101204.22
2019-04-10T12:56:38.670Z,101231.53
2019-04-10T12:59:07.274Z,101208.83
2019-04-10T13:01:36.579Z,101226.09
2019-04-10T13:04:05.454Z,101195.99
2019-04-10T13:06:33.942Z,101205.52
2019-04-10T13:09:09.234Z,101232.41
2019-04-10T13:11:34.366Z,101210.02
2019-04-10T13:14:03.236Z,101188.31
2019-04-10T13:16:32.108Z,101196.24
2019-04-10T13:19:00.871Z,101200.87
2019-04-10T13:21:29.262Z,101202.31
2019-04-10T13:23:57.808Z,101200.55
2019-04-10T13:26:26.248Z,101195.23
2019-04-10T13:28:54.746Z,101184.57
2019-04-10T13:31:23.515Z,101216.55
2019-04-10T13:33:53.044Z,101221.73
2019-04-10T13:36:21.812Z,101230.41
2019-04-10T13:38:50.653Z,101231.97
2019-04-10T13:41:19.115Z,101214.81
2019-04-10T13:43:47.591Z,101200.87
2019-04-10T13:46:16.415Z,101199.87
2019-04-10T13:48:45.216Z,101199.98
2019-04-10T13:51:14.964Z,101204.72
2019-04-10T13:53:43.568Z,101223.81
2019-04-10T13:56:12.845Z,101224.98
2019-04-10T13:58:42.613Z,101236.71
2019-04-10T14:01:13.372Z,101227.92
2019-04-10T14:03:43.810Z,101220.77
2019-04-10T14:06:12.193Z,101228.06
2019-04-10T14:09:01.877Z,101234.52
2019-04-10T14:11:13.215Z,101222.83
2019-04-10T14:13:42.137Z,101216.13
2019-04-10T14:16:10.865Z,101236.30
2019-04-10T14:18:39.434Z,101226.10
2019-04-10T14:21:12.869Z,101206.22
2019-04-10T14:23:39.538Z,101201.48
2019-04-10T14:26:24.667Z,101205.39
2019-04-10T14:28:53.564Z,101213.81
2019-04-10T14:31:26.693Z,101208.06
2019-04-10T14:33:56.287Z,101212.45
2019-04-10T14:36:25.244Z,101200.95
2019-04-10T14:38:55.017Z,101210.19
2019-04-10T14:41:24.828Z,101211.42
2019-04-10T14:43:54.237Z,101212.56
2019-04-10T14:46:24.164Z,101212.05
2019-04-10T14:48:52.737Z,101219.40
2019-04-10T14:51:21.995Z,101223.16
2019-04-10T14:53:51.139Z,101219.83
2019-04-10T14:56:19.914Z,101224.89
2019-04-10T14:58:48.695Z,101223.52
2019-04-10T15:01:17.817Z,101227.02
2019-04-10T15:03:46.689Z,101223.43
2019-04-10T15:06:15.675Z,101224.55
2019-04-10T15:08:44.121Z,101229.41
2019-04-10T15:11:13.937Z,101229.44
2019-04-10T15:13:42.595Z,101230.96
2019-04-10T15:16:11.248Z,101230.02
2019-04-10T15:18:39.696Z,101231.58
2019-04-10T15:21:08.309Z,101233.34
2019-04-10T15:23:36.769Z,101236.60
2019-04-10T15:26:05.996Z,101243.41
2019-04-10T15:28:35.953Z,101234.79
2019-04-10T15:31:05.159Z,101238.59
2019-04-10T15:33:33.610Z,101242.89
2019-04-10T15:36:02.090Z,101237.95
2019-04-10T15:38:30.760Z,101238.81
2019-04-10T15:40:59.367Z,101242.61
2019-04-10T15:43:29.349Z,101243.99
2019-04-10T15:45:58.141Z,101243.31
2019-04-10T15:48:27.181Z,101241.80
2019-04-10T15:50:55.986Z,101247.01
2019-04-10T15:53:24.513Z,101241.52
2019-04-10T15:55:53.719Z,101245.56
2019-04-10T15:58:23.449Z,101247.86
2019-04-10T16:00:52.162Z,101246.39
2019-04-10T16:03:21.742Z,101248.88
2019-04-10T16:05:50.463Z,101250.83
2019-04-10T16:08:20.441Z,101250.55
2019-04-10T16:10:50.854Z,101260.72
2019-04-10T16:13:22.012Z,101259.06
2019-04-10T16:15:50.653Z,101257.17
2019-04-10T16:18:23.513Z,101258.24
2019-04-10T16:20:54.899Z,101254.16
2019-04-10T16:23:40.382Z,101257.16
2019-04-10T16:26:09.638Z,101259.37
2019-04-10T16:28:38.161Z,101266.20
2019-04-10T16:31:07.559Z,101269.23
2019-04-10T16:33:36.115Z,101262.35
2019-04-10T16:36:05.264Z,101274.37
2019-04-10T16:38:33.864Z,101265.86
2019-04-10T16:41:02.783Z,101274.09
2019-04-10T16:43:32.643Z,101273.80
2019-04-10T16:46:02.892Z,101281.20
2019-04-10T16:48:31.594Z,101276.30
2019-04-10T16:51:00.300Z,101279.31
2019-04-10T16:53:29.842Z,101274.32
2019-04-10T16:55:59.051Z,101277.94
2019-04-10T16:58:27.651Z,101281.39
2019-04-10T17:00:56.231Z,101277.26
2019-04-10T17:03:25.367Z,101281.55
2019-04-10T17:05:54.011Z,101279.39
2019-04-10T17:08:23.665Z,101279.42
2019-04-10T17:10:52.541Z,101280.53
2019-04-10T17:13:21.009Z,101281.13
2019-04-10T17:15:50.321Z,101283.85
2019-04-10T17:18:21.153Z,101288.47
2019-04-10T17:20:51.001Z,101293.11
2019-04-10T17:23:20.544Z,101288.34
2019-04-10T17:25:50.665Z,101294.16
2019-04-10T17:28:22.000Z,101295.53
2019-04-10T17:30:49.758Z,101298.51
2019-04-10T17:33:18.675Z,101298.55
2019-04-10T17:35:47.586Z,101300.08
2019-04-10T17:38:16.337Z,101297.91
2019-04-10T17:40:50.514Z,101300.88
2019-04-10T17:43:15.203Z,101305.48
2019-04-10T17:45:44.861Z,101307.91
2019-04-10T17:48:13.770Z,101309.78
2019-04-10T17:50:43.560Z,101308.77
2019-04-10T17:53:13.536Z,101315.94
2019-04-10T17:55:42.600Z,101317.22
2019-04-10T17:58:11.609Z,101325.25
2019-04-10T18:00:43.236Z,101318.80
2019-04-10T18:03:13.254Z,101324.45
2019-04-10T18:05:42.591Z,101329.77
2019-04-10T18:08:12.396Z,101337.33
2019-04-10T18:10:48.699Z,101343.84
2019-04-10T18:13:11.543Z,101349.05
2019-04-10T18:15:40.374Z,101353.14
2019-04-10T18:18:08.819Z,101356.02
2019-04-10T18:20:37.397Z,101360.48
2019-04-10T18:23:07.034Z,101370.71
2019-04-10T18:25:36.163Z,101381.77
2019-04-10T18:28:05.515Z,101374.64
2019-04-10T18:30:35.531Z,101374.47
2019-04-10T18:33:05.133Z,101384.66
2019-04-10T18:35:35.267Z,101379.19
2019-04-10T18:38:04.000Z,101386.34
2019-04-10T18:40:32.606Z,101387.93
2019-04-10T18:43:02.292Z,101390.66
2019-04-10T18:45:31.211Z,101392.47
2019-04-10T18:48:00.599Z,101397.10
2019-04-10T18:50:29.286Z,101391.59
2019-04-10T18:52:58.124Z,101399.69
2019-04-10T18:55:26.595Z,101397.81
2019-04-10T18:57:55.125Z,101402.20
2019-04-10T19:00:37.126Z,101401.95
2019-04-10T19:03:13.074Z,101402.79
2019-04-10T19:05:48.921Z,101404.59
2019-04-10T19:08:17.708Z,101409.56
2019-04-10T19:10:47.345Z,101417.93
2019-04-10T19:13:17.177Z,101414.95
2019-04-10T19:15:46.967Z,101423.58
2019-04-10T19:18:15.632Z,101415.74
2019-04-10T19:20:44.265Z,101420.72
2019-04-10T19:23:13.066Z,101424.81
2019-04-10T19:25:43.382Z,101423.92
2019-04-10T19:28:12.821Z,101427.34
2019-04-10T19:30:43.537Z,101426.75
2019-04-10T19:33:12.618Z,101423.95
2019-04-10T19:35:41.437Z,101432.63
2019-04-10T19:38:11.351Z,101428.98
2019-04-10T19:40:40.451Z,101423.04
2019-04-10T19:43:10.244Z,101433.39
2019-04-10T19:45:39.752Z,101426.03
2019-04-10T19:48:08.977Z,101429.98
2019-04-10T19:50:37.658Z,101430.11
2019-04-10T19:53:06.348Z,101428.46
2019-04-10T19:55:35.923Z,101432.78
2019-04-10T19:58:05.848Z,101435.21
2019-04-10T20:00:36.776Z,101430.52
2019-04-10T20:03:05.765Z,101436.50
2019-04-10T20:05:34.261Z,101434.14
2019-04-10T20:08:02.914Z,101438.81
2019-04-10T20:10:31.370Z,101437.86
2019-04-10T20:12:59.898Z,101447.61
2019-04-10T20:15:28.841Z,101445.80
2019-04-10T20:17:58.222Z,101449.48
2019-04-10T20:20:27.115Z,101447.02
2019-04-10T20:22:56.271Z,101451.92
2019-04-10T20:25:26.123Z,101456.48
2019-04-10T20:27:54.867Z,101464.48
2019-04-10T20:30:25.828Z,101457.73
2019-04-10T20:32:54.501Z,101465.58
2019-04-10T20:35:25.052Z,101466.02
2019-04-10T20:37:53.403Z,101469.01
2019-04-10T20:40:22.158Z,101471.80
2019-04-10T20:42:50.951Z,101470.81
2019-04-10T20:45:21.049Z,101473.50
2019-04-10T20:47:49.816Z,101472.35
2019-04-10T20:50:18.267Z,101476.65
2019-04-10T20:52:47.311Z,101483.48
2019-04-10T20:55:15.838Z,101488.64
2019-04-10T20:57:44.417Z,101491.01
2019-04-10T21:00:18.213Z,101495.78
2019-04-10T21:02:49.091Z,101498.20
2019-04-10T21:05:18.063Z,101499.33
2019-04-10T21:07:46.609Z,101498.97
2019-04-10T21:10:15.099Z,101504.55
2019-04-10T21:12:44.144Z,101502.53
2019-04-10T21:15:13.212Z,101511.50
2019-04-10T21:17:42.464Z,101501.99
2019-04-10T21:20:13.207Z,101517.07
2019-04-10T21:22:41.553Z,101518.06
2019-04-10T21:25:10.316Z,101529.64
2019-04-10T21:27:39.744Z,101524.03
2019-04-10T21:30:26.361Z,101526.29
2019-04-10T21:33:00.268Z,101533.29
2019-04-10T21:35:37.123Z,101531.23
2019-04-10T21:38:06.737Z,101538.09
2019-04-10T21:40:35.410Z,101538.88
2019-04-10T21:43:04.302Z,101542.66
2019-04-10T21:45:35.025Z,101547.35
2019-04-10T21:48:03.551Z,101550.34
2019-04-10T21:50:32.006Z,101548.31
2019-04-10T21:53:00.585Z,101548.41
2019-04-10T21:55:29.187Z,101550.64
2019-04-10T21:57:57.817Z,101556.61
2019-04-10T22:00:45.156Z,101554.09
2019-04-10T22:03:13.668Z,101559.97
2019-04-10T22:05:44.536Z,101564.55
2019-04-10T22:08:14.892Z,101568.38
2019-04-10T22:10:45.073Z,101566.75
2019-04-10T22:13:13.617Z,101567.08
2019-04-10T22:15:44.816Z,101571.89
2019-04-10T22:18:14.774Z,101570.77
2019-04-10T22:20:43.764Z,101571.03
2019-04-10T22:23:12.717Z,101571.63
2019-04-10T22:25:41.169Z,101571.12
2019-04-10T22:28:09.764Z,101573.85
2019-04-10T22:30:38.282Z,101572.52
2019-04-10T22:33:07.656Z,101571.19
2019-04-10T22:35:36.202Z,101569.49
2019-04-10T22:38:04.729Z,101564.68
2019-04-10T22:40:33.388Z,101573.02
2019-04-10T22:43:01.909Z,101575.87
2019-04-10T22:45:31.709Z,101571.63
2019-04-10T22:48:01.218Z,101576.21
2019-04-10T22:50:30.844Z,101571.36
2019-04-10T22:52:59.597Z,101567.67
2019-04-10T22:55:28.221Z,101578.00
2019-04-10T22:57:56.942Z,101584.54
2019-04-10T23:00:28.004Z,101585.08
2019-04-10T23:02:57.273Z,101585.64
2019-04-10T23:05:26.775Z,101581.95
2019-04-10T23:07:55.598Z,101588.77
2019-04-10T23:10:24.750Z,101590.13
2019-04-10T23:12:59.974Z,101598.58
2019-04-10T23:15:25.129Z,101587.28
2019-04-10T23:17:53.877Z,101595.42
2019-04-10T23:20:22.466Z,101593.20
2019-04-10T23:22:50.957Z,101594.84
2019-04-10T23:25:20.495Z,101593.64
2019-04-10T23:27:51.996Z,101548.97
2019-04-10T23:30:19.923Z,101597.22
2019-04-10T23:32:48.963Z,101602.52
2019-04-10T23:35:17.541Z,101605.61
2019-04-10T23:37:46.921Z,101602.58
2019-04-10T23:40:16.861Z,101600.13
2019-04-10T23:42:46.356Z,101599.79
2019-04-10T23:45:15.613Z,101605.69
2019-04-10T23:47:44.480Z,101604.22
2019-04-10T23:50:15.026Z,101611.92
2019-04-10T23:52:44.350Z,101609.91
2019-04-10T23:55:13.636Z,101608.48
2019-04-10T23:57:43.310Z,101611.84
